Time;durP1;ratioP1;P1;durP2;ratioP2;P2;SDS_P1;SDS_P2;PMS_P1;PMS_P2;Temp;Humidity;BMP_temperature;BMP_pressure;BME280_temperature;BME280_humidity;BME280_pressure;Samples;Min_cycle;Max_cycle;Signal;HPM_P1;HPM_P2
2023/10/04 00:02:12;;;;;;;4.70;2.93;;;12.30;90.30;;;11.86;86.75;99000.03;5044231;28;20455;-77
2023/10/04 00:04:43;;;;;;;3.40;2.63;;;12.30;90.10;;;11.84;86.94;99007.53;5043188;28;20448;-76
2023/10/04 00:07:10;;;;;;;4.90;3.10;;;12.30;90.10;;;11.72;87.60;99003.69;5051303;28;20495;-77
2023/10/04 00:09:37;;;;;;;3.83;2.60;;;12.20;90.20;;;11.62;87.95;99015.72;5044713;28;20446;-77
2023/10/04 00:12:05;;;;;;;5.23;2.70;;;12.10;90.30;;;11.39;87.21;98985.38;5048552;28;20453;-76
2023/10/04 00:14:32;;;;;;;6.80;3.00;;;12.20;90.30;;;11.63;87.60;99027.38;5052403;28;20480;-76
2023/10/04 00:17:01;;;;;;;3.03;2.67;;;12.10;90.30;;;11.13;88.18;98944.41;5058627;28;20462;-76
2023/10/04 00:19:28;;;;;;;3.37;3.07;;;12.10;90.40;;;11.59;88.36;99021.50;5052243;28;20495;-76
2023/10/04 00:21:57;;;;;;;3.03;2.73;;;12.10;90.50;;;11.57;88.99;99018.19;5045414;28;20966;-77
2023/10/04 00:24:24;;;;;;;2.80;2.60;;;12.00;90.70;;;11.53;88.84;99021.50;5043594;28;20464;-76
2023/10/04 00:26:51;;;;;;;2.93;2.63;;;11.90;90.80;;;11.48;89.51;99028.31;5043633;28;20472;-76
2023/10/04 00:29:19;;;;;;;4.57;3.10;;;11.80;91.20;;;11.30;90.05;99012.59;5041599;28;20506;-77
2023/10/04 00:31:47;;;;;;;5.70;3.87;;;11.60;91.70;;;11.47;90.20;99029.34;5074777;28;20829;-77
2023/10/04 00:34:15;;;;;;;3.33;2.73;;;11.70;92.30;;;11.42;90.23;99033.66;5057274;28;20469;-76
2023/10/04 00:36:44;;;;;;;2.77;2.57;;;11.60;92.30;;;11.29;91.22;99035.22;5043100;28;20463;-76
2023/10/04 00:39:13;;;;;;;4.37;3.47;;;11.50;92.80;;;11.05;91.89;99010.28;5036400;28;20446;-76
2023/10/04 00:41:42;;;;;;;4.50;3.30;;;11.40;93.00;;;11.03;92.62;99030.44;5039318;28;20475;-78
2023/10/04 00:44:10;;;;;;;6.60;3.77;;;11.30;93.40;;;10.99;93.07;99035.38;5047980;28;20451;-76
2023/10/04 00:46:41;;;;;;;3.57;3.27;;;11.20;94.30;;;10.96;93.94;99037.66;5043035;28;20524;-77
2023/10/04 00:49:09;;;;;;;3.13;2.90;;;11.10;94.60;;;11.13;93.49;99038.22;5048968;28;20455;-77
2023/10/04 00:51:40;;;;;;;4.90;3.40;;;11.20;95.60;;;11.16;93.14;99037.84;5055037;28;20458;-78
2023/10/04 00:54:10;;;;;;;3.90;3.23;;;11.30;94.90;;;11.11;94.77;99033.00;5043239;28;20871;-78
2023/10/04 00:56:38;;;;;;;3.43;3.13;;;11.30;95.40;;;11.17;94.54;99036.81;5045931;28;21001;-78
2023/10/04 00:59:07;;;;;;;4.77;3.80;;;11.30;95.70;;;11.19;94.08;99038.28;5038910;28;20460;-77
2023/10/04 01:01:34;;;;;;;4.10;3.70;;;11.30;95.60;;;11.20;94.84;99049.94;5049949;28;20476;-76
2023/10/04 01:04:05;;;;;;;4.23;3.83;;;11.40;95.60;;;11.25;94.39;99047.47;5043360;28;20867;-76
2023/10/04 01:06:35;;;;;;;5.00;3.67;;;11.50;95.30;;;11.10;94.28;99022.38;5049190;28;20439;-77
2023/10/04 01:09:05;;;;;;;4.60;3.43;;;11.50;95.00;;;11.23;94.65;99052.25;5054744;28;20455;-77
2023/10/04 01:11:35;;;;;;;6.10;3.80;;;11.50;94.80;;;11.15;95.09;99052.41;5041448;28;20806;-77
2023/10/04 01:14:15;;;;;;;4.80;3.70;;;11.40;95.10;;;11.01;95.97;99046.00;5048075;28;20782;-77
2023/10/04 01:16:43;;;;;;;9.10;4.60;;;11.30;95.40;;;10.92;97.42;99042.59;5049131;28;20482;-77
2023/10/04 01:19:14;;;;;;;5.17;3.40;;;11.10;96.30;;;11.03;97.43;99047.50;5054667;28;21091;-77
2023/10/04 01:21:41;;;;;;;4.70;4.20;;;11.10;97.60;;;11.10;96.54;99044.00;5048011;28;20508;-77
2023/10/04 01:24:10;;;;;;;6.23;4.27;;;11.20;98.00;;;11.13;96.38;99038.22;5050663;28;20510;-75
2023/10/04 01:26:41;;;;;;;4.07;3.77;;;11.20;97.10;;;10.95;96.73;99036.81;5054975;28;20455;-75
2023/10/04 01:29:11;;;;;;;4.90;4.03;;;11.20;96.70;;;10.89;98.40;99037.59;5056353;28;20450;-76
2023/10/04 01:31:38;;;;;;;6.80;4.47;;;11.10;97.60;;;10.85;98.61;99025.50;5045410;28;20933;-76
2023/10/04 01:34:06;;;;;;;5.37;3.77;;;11.00;98.20;;;10.94;98.28;99027.03;5048977;28;20924;-75
2023/10/04 01:36:36;;;;;;;7.33;4.60;;;11.00;99.40;;;10.91;97.92;99030.13;5047471;28;21097;-76
2023/10/04 01:39:07;;;;;;;4.90;4.00;;;11.00;99.30;;;10.91;98.59;99024.72;5049945;28;20445;-76
2023/10/04 01:41:37;;;;;;;6.27;4.50;;;11.00;99.80;;;10.91;98.66;99030.13;5044216;28;20957;-77
2023/10/04 01:44:09;;;;;;;4.83;3.97;;;11.10;99.20;;;10.77;99.75;99029.97;5041644;28;20929;-76
2023/10/04 01:46:37;;;;;;;4.50;4.20;;;11.00;99.10;;;10.66;99.90;99033.19;5048772;28;20940;-77
2023/10/04 01:49:07;;;;;;;4.53;3.87;;;10.90;99.30;;;10.66;99.99;99033.19;5058374;28;21191;-77
2023/10/04 01:51:34;;;;;;;8.73;3.93;;;10.80;99.90;;;10.55;100.00;99028.28;5049948;28;20531;-76
2023/10/04 01:54:06;;;;;;;5.40;4.30;;;10.70;99.90;;;10.46;100.00;99032.94;5047873;28;20451;-78
2023/10/04 01:56:36;;;;;;;6.37;4.70;;;10.60;99.90;;;10.43;100.00;99031.47;5042061;28;20448;-77
2023/10/04 01:59:06;;;;;;;7.00;5.20;;;10.60;99.90;;;10.40;100.00;99033.69;5045383;28;20455;-76
2023/10/04 02:01:34;;;;;;;4.60;4.17;;;10.50;99.90;;;10.52;100.00;99032.19;5046244;28;20959;-77
2023/10/04 02:04:05;;;;;;;6.50;4.87;;;10.60;99.90;;;10.56;100.00;99033.50;5073885;28;20843;-76
2023/10/04 02:06:35;;;;;;;4.83;4.33;;;10.60;99.90;;;10.47;100.00;99023.84;5057432;28;20457;-77
2023/10/04 02:09:03;;;;;;;5.87;4.20;;;10.70;99.90;;;10.57;100.00;99032.47;5071642;28;20508;-76
2023/10/04 02:11:31;;;;;;;8.63;4.40;;;10.70;99.90;;;10.48;100.00;99033.63;5041298;28;21654;-78
2023/10/04 02:14:00;;;;;;;7.00;4.23;;;10.60;99.90;;;10.39;100.00;99037.41;5044616;28;20487;-76
2023/10/04 02:16:28;;;;;;;4.67;3.97;;;10.60;99.90;;;10.55;100.00;99031.00;5044188;28;20934;-77
2023/10/04 02:18:56;;;;;;;5.00;4.00;;;10.70;99.90;;;10.53;100.00;99014.09;5077318;28;20457;-78
2023/10/04 02:21:26;;;;;;;4.37;3.97;;;10.80;99.90;;;10.65;100.00;99031.50;5041397;28;21014;-77
2023/10/04 02:23:54;;;;;;;5.33;4.13;;;10.80;99.90;;;10.56;100.00;99028.09;5044675;28;20457;-77
2023/10/04 02:26:22;;;;;;;4.17;3.77;;;10.80;99.90;;;10.12;100.00;98967.72;5048502;28;20449;-76
2023/10/04 02:28:51;;;;;;;5.03;3.97;;;10.70;99.90;;;10.61;100.00;99030.22;5049076;28;21018;-77
2023/10/04 02:31:20;;;;;;;4.37;3.97;;;10.80;99.90;;;10.61;100.00;99046.44;5053255;28;20544;-77
2023/10/04 02:33:50;;;;;;;4.87;4.37;;;10.80;99.90;;;10.58;100.00;99044.94;5043060;28;20510;-77
2023/10/04 02:36:17;;;;;;;6.23;4.70;;;10.80;99.90;;;10.53;100.00;99044.69;5043924;28;20985;-77
2023/10/04 02:38:44;;;;;;;5.83;4.47;;;10.70;99.90;;;10.60;100.00;99044.75;5042096;28;20467;-75
2023/10/04 02:41:11;;;;;;;4.27;3.87;;;10.70;99.90;;;10.56;100.00;99044.28;5045454;28;20466;-77
2023/10/04 02:43:38;;;;;;;5.87;4.30;;;10.80;99.90;;;10.62;100.00;99037.28;5056659;28;20455;-75
2023/10/04 02:46:06;;;;;;;6.07;4.63;;;10.90;99.90;;;10.67;100.00;99036.72;5046550;28;20499;-76
2023/10/04 02:48:35;;;;;;;6.10;4.33;;;10.90;99.90;;;10.75;100.00;99042.84;5050025;28;20487;-77
2023/10/04 02:51:04;;;;;;;4.57;4.17;;;11.00;99.90;;;10.79;100.00;99048.72;5045723;28;20450;-77
2023/10/04 02:53:31;;;;;;;4.87;4.43;;;11.10;99.90;;;10.77;100.00;99057.00;5045328;28;20451;-77
2023/10/04 02:55:58;;;;;;;6.93;5.10;;;11.10;99.90;;;10.82;100.00;99047.47;5030809;28;20458;-76
2023/10/04 02:58:26;;;;;;;6.33;4.67;;;11.20;99.80;;;10.80;100.00;99050.38;5061396;28;20450;-76
2023/10/04 03:00:54;;;;;;;5.73;4.40;;;11.20;99.30;;;10.79;100.00;99064.09;5046247;28;20628;-76
2023/10/04 03:03:22;;;;;;;6.00;4.70;;;11.20;98.40;;;10.78;100.00;99057.88;5043414;28;20460;-76
2023/10/04 03:05:54;;;;;;;5.60;4.50;;;11.20;98.00;;;10.77;100.00;99059.72;5052235;28;20966;-75
2023/10/04 03:08:23;;;;;;;5.50;4.40;;;11.20;98.00;;;10.59;99.33;99043.09;5055685;28;20464;-76
2023/10/04 03:10:51;;;;;;;4.73;3.80;;;11.10;97.50;;;10.62;99.58;99058.91;5050023;28;20474;-77
2023/10/04 03:13:24;;;;;;;7.47;4.43;;;11.00;97.40;;;10.58;99.60;99057.63;5045780;28;20476;-76
2023/10/04 03:15:52;;;;;;;4.77;4.00;;;11.00;97.70;;;10.43;100.00;99028.78;5042617;28;20496;-76
2023/10/04 03:18:20;;;;;;;5.87;4.57;;;10.90;97.70;;;10.41;100.00;99062.41;5061367;28;20460;-76
2023/10/04 03:21:00;;;;;;;5.37;4.40;;;10.80;97.90;;;10.40;99.51;99061.56;5047304;28;20463;-77
2023/10/04 03:23:33;;;;;;;5.30;4.80;;;10.80;98.40;;;10.51;100.00;99072.91;5043786;28;20484;-78
2023/10/04 03:26:03;;;;;;;5.70;4.50;;;10.80;98.50;;;10.49;99.27;99071.25;5045680;28;20506;-76
2023/10/04 03:28:33;;;;;;;5.73;4.73;;;10.80;98.40;;;10.48;99.41;99071.44;5062325;28;20533;-77
2023/10/04 03:31:04;;;;;;;6.23;4.77;;;10.80;98.30;;;10.52;99.92;99074.59;5045049;28;20536;-77
2023/10/04 03:33:32;;;;;;;5.10;3.90;;;10.80;98.30;;;10.47;100.00;99073.28;5070540;28;20500;-77
2023/10/04 03:36:04;;;;;;;5.93;4.67;;;10.70;98.30;;;10.38;100.00;99068.97;5047611;28;20446;-77
2023/10/04 03:38:33;;;;;;;5.63;4.93;;;10.70;98.70;;;10.32;100.00;99067.03;5044802;28;20457;-76
2023/10/04 03:41:01;;;;;;;7.50;5.00;;;10.70;99.30;;;10.30;100.00;99056.41;5042664;28;20484;-76
2023/10/04 03:43:28;;;;;;;6.43;5.33;;;10.70;99.50;;;10.34;100.00;99054.19;5045659;28;20475;-76
2023/10/04 03:45:55;;;;;;;10.83;6.23;;;10.70;99.80;;;10.33;100.00;99066.03;5054639;28;20455;-76
2023/10/04 03:48:23;;;;;;;6.33;5.50;;;10.70;99.90;;;10.26;100.00;99070.50;5039914;28;20509;-76
2023/10/04 03:50:53;;;;;;;6.83;5.57;;;10.60;99.90;;;10.40;100.00;99058.84;5045700;28;20449;-75
2023/10/04 03:53:21;;;;;;;6.20;5.60;;;10.70;99.90;;;10.25;100.00;99056.16;5044006;28;20686;-76
2023/10/04 03:55:50;;;;;;;8.47;5.57;;;10.70;99.90;;;10.35;100.00;99066.66;5050159;28;20470;-76
2023/10/04 03:58:19;;;;;;;6.80;5.37;;;10.70;99.90;;;10.33;100.00;99064.16;5046852;28;20454;-77
2023/10/04 04:00:47;;;;;;;8.60;6.07;;;10.70;99.90;;;10.30;100.00;99052.91;5045817;28;20567;-76
2023/10/04 04:03:15;;;;;;;8.27;5.50;;;10.70;99.90;;;10.19;100.00;99055.03;5045654;28;20455;-76
2023/10/04 04:05:42;;;;;;;6.33;4.90;;;10.50;99.90;;;10.24;100.00;99061.75;5051025;28;20520;-77
2023/10/04 04:08:10;;;;;;;7.97;5.33;;;10.50;99.90;;;10.20;100.00;99062.13;5056417;28;20462;-78
2023/10/04 04:10:38;;;;;;;6.10;5.00;;;10.50;99.90;;;10.19;100.00;99055.03;5061781;28;21074;-76
2023/10/04 04:13:06;;;;;;;10.00;5.77;;;10.50;99.90;;;10.17;100.00;99056.28;5055534;28;21014;-77
2023/10/04 04:15:35;;;;;;;7.40;5.70;;;10.50;99.90;;;10.27;100.00;99053.28;5048953;28;20556;-77
2023/10/04 04:18:06;;;;;;;6.80;5.93;;;10.60;99.90;;;10.09;100.00;99059.06;5045455;28;20466;-76
2023/10/04 04:20:35;;;;;;;7.10;6.10;;;10.50;99.90;;;10.09;100.00;99070.72;5040503;28;20464;-77
2023/10/04 04:23:04;;;;;;;6.97;5.60;;;10.50;99.90;;;10.09;100.00;99069.84;5042431;28;20531;-76
2023/10/04 04:25:33;;;;;;;5.93;5.40;;;10.50;99.90;;;9.97;100.00;99056.00;5043147;28;20476;-76
2023/10/04 04:28:02;;;;;;;7.10;5.90;;;10.40;99.90;;;10.00;100.00;99063.72;5052735;28;20689;-77
2023/10/04 04:30:31;;;;;;;8.00;6.13;;;10.40;99.90;;;10.00;100.00;99063.72;5043610;28;20461;-76
2023/10/04 04:33:01;;;;;;;8.00;6.30;;;10.40;99.90;;;10.01;100.00;99057.28;5044690;28;20470;-77
2023/10/04 04:35:40;;;;;;;7.97;6.47;;;10.40;99.90;;;10.07;100.00;99045.72;5066710;28;20463;-76
2023/10/04 04:38:13;;;;;;;7.87;6.67;;;10.40;99.90;;;10.04;100.00;99041.56;5038393;28;20456;-78
2023/10/04 04:40:44;;;;;;;8.77;7.90;;;10.40;99.90;;;10.04;100.00;99046.97;5042353;28;20464;-77
2023/10/04 04:43:26;;;;;;;9.70;7.27;;;10.40;99.90;;;9.97;100.00;99039.78;5045700;28;20460;-76
2023/10/04 04:45:57;;;;;;;9.23;7.37;;;10.40;99.90;;;9.81;100.00;99025.47;5064334;28;20827;-76
2023/10/04 04:48:27;;;;;;;10.13;7.27;;;10.40;99.90;;;9.98;100.00;99052.25;5044812;28;20445;-77
2023/10/04 04:50:55;;;;;;;9.13;7.53;;;10.30;99.90;;;9.87;100.00;99054.41;5043772;28;20463;-77
2023/10/04 04:53:23;;;;;;;8.83;7.20;;;10.30;99.90;;;9.90;100.00;99055.91;5043628;28;20571;-83
2023/10/04 04:55:50;;;;;;;9.70;7.80;;;10.30;99.90;;;10.07;100.00;99051.97;5050441;28;20468;-81
2023/10/04 04:58:19;;;;;;;8.90;6.93;;;10.40;99.90;;;10.20;100.00;99051.31;5046741;28;20790;-84
2023/10/04 05:00:50;;;;;;;14.17;8.23;;;10.40;99.90;;;10.49;100.00;99055.03;5046525;28;21171;-79
2023/10/04 05:03:19;;;;;;;9.83;6.80;;;10.90;99.90;;;10.32;100.00;99059.78;5075208;28;20448;-77
2023/10/04 05:05:49;;;;;;;9.60;7.60;;;10.70;99.90;;;10.23;100.00;99071.72;5045688;28;21020;-77
2023/10/04 05:08:17;;;;;;;9.20;6.90;;;10.50;99.90;;;10.21;100.00;99069.19;5039657;28;20526;-77
2023/10/04 05:10:48;;;;;;;10.90;7.10;;;10.50;99.90;;;10.07;100.00;99072.72;5039092;28;20474;-74
2023/10/04 05:13:17;;;;;;;10.33;7.60;;;10.40;99.90;;;10.09;100.00;99080.66;5035986;28;20553;-77
2023/10/04 05:15:45;;;;;;;11.07;7.70;;;10.40;99.90;;;9.98;100.00;99074.69;5039076;28;20459;-74
2023/10/04 05:18:16;;;;;;;8.23;7.37;;;10.40;99.90;;;9.98;100.00;99090.06;5037001;28;20461;-73
2023/10/04 05:20:45;;;;;;;7.47;6.20;;;10.30;99.90;;;9.90;100.00;99064.00;5036624;28;20455;-74
2023/10/04 05:23:12;;;;;;;9.40;5.90;;;10.30;99.90;;;9.85;100.00;99086.13;5054050;28;20452;-82
2023/10/04 05:25:40;;;;;;;6.80;6.10;;;10.30;99.90;;;9.83;100.00;99088.19;5043792;28;20445;-75
2023/10/04 05:28:11;;;;;;;9.17;8.30;;;10.20;99.90;;;9.84;100.00;99075.50;5041274;28;20453;-74
2023/10/04 05:30:41;;;;;;;10.57;6.90;;;10.20;99.90;;;9.83;100.00;99082.78;5057252;28;21099;-76
2023/10/04 05:33:10;;;;;;;8.17;7.33;;;10.10;99.90;;;9.96;100.00;99092.13;5042884;28;20484;-76
2023/10/04 05:35:38;;;;;;;9.30;6.90;;;10.30;99.90;;;10.18;100.00;99085.78;5042290;28;20518;-74
2023/10/04 05:38:07;;;;;;;9.63;7.30;;;10.40;99.90;;;9.99;100.00;99078.25;5057554;28;20963;-77
2023/10/04 05:40:38;;;;;;;11.30;9.30;;;10.40;99.90;;;10.10;100.00;99090.44;5041664;28;20459;-74
2023/10/04 05:43:06;;;;;;;8.80;7.53;;;10.50;99.90;;;10.16;100.00;99085.13;5044658;28;20570;-80
2023/10/04 05:45:34;;;;;;;10.00;7.93;;;10.60;99.90;;;10.31;100.00;99078.88;5045149;28;20901;-74
2023/10/04 05:48:01;;;;;;;12.80;8.20;;;10.60;99.90;;;10.37;100.00;99075.41;5041259;28;20956;-82
2023/10/04 05:50:32;;;;;;;9.80;8.40;;;10.70;99.90;;;10.27;100.00;99083.00;5040634;28;20452;-77
2023/10/04 05:53:01;;;;;;;9.60;8.27;;;10.70;99.80;;;10.18;100.00;99084.94;5042473;28;20870;-79
2023/10/04 05:55:29;;;;;;;10.33;8.10;;;10.60;99.70;;;10.18;100.00;99090.34;5052809;28;20800;-76
2023/10/04 05:57:56;;;;;;;13.57;9.00;;;10.50;99.90;;;10.15;100.00;99096.94;5064217;28;20484;-78
2023/10/04 06:00:26;;;;;;;14.90;9.00;;;10.60;99.90;;;10.34;100.00;99095.56;5075819;28;20446;-77
2023/10/04 06:02:55;;;;;;;11.23;8.20;;;10.60;99.90;;;10.58;100.00;99090.06;5072561;28;20489;-76
2023/10/04 06:05:23;;;;;;;11.30;8.70;;;10.80;99.90;;;10.46;100.00;99082.44;5062383;28;20457;-77
2023/10/04 06:07:54;;;;;;;14.00;9.10;;;10.90;99.90;;;10.51;100.00;99098.09;5049047;28;20466;-80
2023/10/04 06:10:23;;;;;;;11.60;10.37;;;10.90;99.50;;;10.47;100.00;99103.00;5067845;28;20460;-81
2023/10/04 06:12:54;;;;;;;10.33;8.77;;;10.90;98.80;;;10.63;100.00;99101.13;5045757;28;20464;-80
2023/10/04 06:15:24;;;;;;;11.27;9.10;;;10.90;99.80;;;10.75;100.00;99105.03;5044352;28;20486;-80
2023/10/04 06:17:53;;;;;;;9.97;8.97;;;11.00;99.70;;;10.80;99.17;99098.19;5049334;28;20566;-83
2023/10/04 06:20:24;;;;;;;11.03;7.80;;;11.10;98.50;;;10.70;98.86;99076.88;5050196;28;20543;-83
2023/10/04 06:22:59;;;;;;;11.50;9.70;;;11.20;97.70;;;10.84;98.23;99096.78;5051861;28;20478;-79
2023/10/04 06:25:28;;;;;;;10.93;8.90;;;11.20;96.30;;;11.24;97.00;99099.09;5049106;28;20461;-82
2023/10/04 06:27:59;;;;;;;10.63;8.90;;;11.40;96.20;;;11.41;95.10;99107.75;5059753;28;20502;-81
2023/10/04 06:30:28;;;;;;;11.20;10.10;;;11.60;95.60;;;10.94;95.29;99096.50;5045087;28;20449;-77
2023/10/04 06:32:57;;;;;;;12.17;9.70;;;11.60;93.80;;;10.99;95.63;99113.78;5046555;28;20460;-82
2023/10/04 06:35:26;;;;;;;11.37;10.17;;;11.50;93.90;;;11.21;95.32;99113.84;5038760;28;20896;-76
2023/10/04 06:37:56;;;;;;;10.80;9.40;;;11.50;94.10;;;11.29;94.10;99120.97;5048495;28;20460;-80
2023/10/04 06:40:24;;;;;;;10.03;9.03;;;11.60;93.80;;;11.02;94.09;99118.00;5034888;28;20455;-76
2023/10/04 06:42:55;;;;;;;10.67;9.00;;;11.60;93.00;;;10.99;95.10;99124.63;5041642;28;20481;-76
2023/10/04 06:45:26;;;;;;;12.03;8.33;;;11.50;93.20;;;11.19;94.94;99126.72;5036943;28;20519;-78
2023/10/04 06:47:55;;;;;;;9.37;8.47;;;11.60;93.70;;;11.29;94.26;99127.22;5038825;28;20461;-78
2023/10/04 06:50:28;;;;;;;10.00;8.90;;;11.70;93.30;;;11.17;94.38;99120.66;5041461;28;20814;-79
2023/10/04 06:52:57;;;;;;;14.47;10.20;;;11.70;92.90;;;10.64;95.04;99035.25;5043371;28;20449;-78
2023/10/04 06:55:26;;;;;;;11.90;10.40;;;11.70;93.10;;;11.28;93.21;99113.91;5041211;28;20451;-78
2023/10/04 06:57:53;;;;;;;10.80;9.47;;;11.80;92.70;;;11.19;95.11;99118.59;5038757;28;20465;-79
2023/10/04 07:00:26;;;;;;;12.90;9.73;;;11.70;93.00;;;11.49;93.20;99126.59;5041248;28;20459;-77
2023/10/04 07:02:58;;;;;;;10.70;9.37;;;11.80;93.20;;;11.54;91.63;99134.94;5043571;28;20470;-76
2023/10/04 07:05:27;;;;;;;11.83;9.57;;;12.00;91.90;;;11.70;91.22;99124.88;5045440;28;20466;-78
2023/10/04 07:07:56;;;;;;;10.47;8.90;;;12.10;91.80;;;11.72;91.12;99139.91;5069103;28;20465;-77
2023/10/04 07:10:26;;;;;;;10.83;8.70;;;12.10;91.60;;;11.89;89.80;99145.03;5047052;28;20459;-75
2023/10/04 07:12:54;;;;;;;11.67;8.50;;;12.40;91.30;;;12.02;89.38;99125.34;5040986;28;20438;-77
2023/10/04 07:15:27;;;;;;;12.50;10.53;;;12.40;91.30;;;12.00;89.03;99143.66;5034617;28;20450;-82
2023/10/04 07:17:54;;;;;;;11.90;9.60;;;12.40;91.00;;;12.08;88.56;99148.97;5038949;28;20941;-79
2023/10/04 07:20:24;;;;;;;12.27;9.40;;;12.50;90.80;;;12.64;87.32;99143.66;5038717;28;20512;-75
2023/10/04 07:22:58;;;;;;;11.50;9.30;;;12.80;90.90;;;12.89;84.66;99138.53;5039760;28;21022;-76
2023/10/04 07:25:27;;;;;;;12.10;9.90;;;13.20;90.30;;;12.86;84.55;99149.78;5035998;28;20463;-77
2023/10/04 07:27:56;;;;;;;10.50;8.40;;;13.30;89.50;;;12.91;85.14;99147.31;5046186;28;20482;-77
2023/10/04 07:30:26;;;;;;;11.07;9.60;;;13.40;89.40;;;13.06;83.78;99132.75;5040578;28;20598;-79
2023/10/04 07:32:53;;;;;;;10.40;9.30;;;13.40;89.40;;;13.85;81.21;99155.63;5042174;28;20468;-78
2023/10/04 07:35:25;;;;;;;15.23;10.10;;;13.90;88.90;;;13.98;79.12;99146.66;5046331;28;20462;-77
2023/10/04 07:37:53;;;;;;;12.13;10.40;;;14.30;87.50;;;13.72;80.28;99158.34;5038900;28;20467;-78
2023/10/04 07:40:23;;;;;;;14.77;11.23;;;14.20;87.10;;;13.76;80.67;99159.63;5038186;28;20457;-78
2023/10/04 07:42:53;;;;;;;12.73;11.43;;;14.20;87.30;;;13.81;81.32;99151.69;5042538;28;20489;-77
2023/10/04 07:45:22;;;;;;;12.40;10.20;;;14.10;88.00;;;13.45;80.14;99142.88;5034360;28;20492;-76
2023/10/04 07:47:51;;;;;;;10.50;9.33;;;14.00;86.80;;;13.47;82.19;99161.69;5039716;28;20464;-79
2023/10/04 07:50:24;;;;;;;12.67;10.10;;;13.90;87.60;;;13.28;81.49;99164.13;5037208;28;20473;-80
2023/10/04 07:52:54;;;;;;;10.83;9.77;;;13.80;87.10;;;13.06;82.85;99163.44;5037216;28;21074;-80
2023/10/04 07:55:22;;;;;;;13.73;10.87;;;13.70;87.50;;;13.04;83.38;99160.91;5038496;28;20852;-78
2023/10/04 07:57:53;;;;;;;12.03;9.60;;;13.50;87.80;;;13.06;83.93;99176.16;5039869;28;21078;-81
2023/10/04 08:00:21;;;;;;;14.27;10.83;;;13.50;88.20;;;12.98;83.92;99153.59;5040465;28;20512;-80
2023/10/04 08:02:51;;;;;;;15.47;11.23;;;13.60;88.10;;;13.10;83.19;99136.72;5037794;28;20549;-79
2023/10/04 08:05:21;;;;;;;10.53;9.43;;;13.70;88.20;;;13.35;82.75;99157.88;5042009;28;20455;-78
2023/10/04 08:07:49;;;;;;;13.40;10.03;;;13.80;88.20;;;13.43;82.68;99146.81;5040797;28;20471;-79
2023/10/04 08:10:18;;;;;;;12.03;10.40;;;13.80;88.00;;;13.39;82.21;99148.25;5040783;28;20537;-80
2023/10/04 08:12:46;;;;;;;12.90;9.70;;;14.00;87.70;;;13.52;82.65;99153.75;5040308;28;20558;-78
2023/10/04 08:15:14;;;;;;;12.80;9.97;;;14.00;88.10;;;13.66;82.21;99160.03;5050453;28;20497;-81
2023/10/04 08:17:43;;;;;;;9.40;7.90;;;14.00;88.20;;;13.53;81.58;99144.56;5037637;28;20449;-74
2023/10/04 08:20:13;;;;;;;10.43;8.60;;;14.00;87.80;;;13.53;81.26;99155.41;5037996;28;21328;-73
2023/10/04 08:22:41;;;;;;;9.87;8.90;;;14.00;87.30;;;13.41;80.56;99102.75;5040498;28;20798;-72
2023/10/04 08:25:12;;;;;;;10.77;8.30;;;14.00;87.50;;;13.97;79.80;99155.00;5022161;28;20532;-72
2023/10/04 08:27:40;;;;;;;11.00;8.90;;;14.20;87.30;;;13.91;79.33;99162.13;5032458;28;20439;-74
2023/10/04 08:30:11;;;;;;;10.33;8.17;;;14.20;87.00;;;13.23;80.06;99085.19;5039786;28;20538;-74
2023/10/04 08:32:40;;;;;;;10.57;8.50;;;14.10;86.80;;;13.48;80.54;99147.06;5039632;28;20547;-73
2023/10/04 08:35:21;;;;;;;9.53;7.00;;;14.10;86.80;;;13.62;80.50;99166.09;5036166;28;20529;-75
2023/10/04 08:37:50;;;;;;;10.63;7.87;;;14.10;86.90;;;13.81;78.70;99167.97;5068453;28;20449;-74
2023/10/04 08:40:18;;;;;;;7.50;6.37;;;14.10;86.40;;;13.97;78.03;99166.72;5065324;28;20457;-76
2023/10/04 08:42:46;;;;;;;8.00;6.90;;;14.30;86.10;;;13.75;78.89;99157.97;5061894;28;20479;-75
2023/10/04 08:45:13;;;;;;;10.97;5.70;;;14.20;86.10;;;13.84;77.44;99148.53;5059775;28;20449;-75
2023/10/04 08:47:41;;;;;;;6.87;6.17;;;14.30;85.50;;;13.83;77.72;99157.72;5043733;28;20456;-73
2023/10/04 08:50:12;;;;;;;7.27;6.00;;;14.30;85.50;;;14.06;76.20;99159.19;5045217;28;20457;-75
2023/10/04 08:52:43;;;;;;;13.13;6.17;;;14.40;85.20;;;14.13;76.20;99142.88;5047807;28;20669;-72
2023/10/04 08:55:17;;;;;;;7.90;5.33;;;14.50;85.00;;;14.11;75.69;99156.69;5037467;28;20940;-73
2023/10/04 08:57:45;;;;;;;6.43;5.33;;;14.50;84.70;;;14.09;75.85;99152.50;5068015;28;20786;-74
2023/10/04 09:00:14;;;;;;;8.23;5.07;;;14.50;84.60;;;13.78;75.46;99108.66;5031280;28;20467;-74
2023/10/04 09:02:45;;;;;;;6.93;4.93;;;14.40;84.20;;;14.20;75.62;99145.59;5069611;28;20808;-72
2023/10/04 09:05:23;;;;;;;8.43;5.30;;;14.60;84.60;;;14.21;75.97;99150.00;5048184;28;20456;-73
2023/10/04 09:07:53;;;;;;;7.63;4.50;;;14.50;84.70;;;14.56;73.05;99146.97;5044003;28;20536;-72
2023/10/04 09:10:23;;;;;;;7.53;4.07;;;14.70;84.10;;;14.64;71.02;99127.72;5042009;28;20465;-73
2023/10/04 09:12:51;;;;;;;5.03;3.57;;;15.00;82.50;;;14.75;69.94;99137.09;5042699;28;20469;-74
2023/10/04 09:15:18;;;;;;;2.90;2.50;;;15.10;81.70;;;14.64;68.44;99144.03;5044257;28;20468;-73
2023/10/04 09:17:47;;;;;;;3.57;2.60;;;15.10;80.40;;;14.59;67.14;99144.66;5070618;28;20461;-73
2023/10/04 09:20:17;;;;;;;3.00;2.70;;;15.00;79.00;;;14.76;67.01;99116.16;5054656;28;20459;-74
2023/10/04 09:22:44;;;;;;;4.30;2.80;;;15.20;79.30;;;15.01;66.94;99132.56;5042983;28;20509;-73
2023/10/04 09:25:12;;;;;;;3.93;2.70;;;15.30;79.10;;;14.99;65.21;99123.81;5058673;28;21026;-74
2023/10/04 09:27:41;;;;;;;4.73;2.63;;;15.40;77.70;;;15.23;64.78;99135.81;5056527;28;20510;-73
2023/10/04 09:30:22;;;;;;;5.33;2.47;;;15.50;77.60;;;15.18;63.66;99121.22;5043259;28;20549;-74
2023/10/04 09:32:51;;;;;;;4.93;2.60;;;15.50;76.20;;;15.30;64.31;99128.44;5043455;28;20515;-73
2023/10/04 09:35:19;;;;;;;4.27;2.50;;;15.60;76.90;;;15.50;63.86;99116.56;5041718;28;20458;-72
2023/10/04 09:37:47;;;;;;;2.90;2.30;;;15.80;76.80;;;15.87;63.98;99124.03;5070201;28;20567;-73
2023/10/04 09:40:16;;;;;;;3.97;2.20;;;16.00;77.10;;;16.16;61.79;99109.97;5041899;28;20999;-73
2023/10/04 09:42:55;;;;;;;6.00;2.23;;;16.40;75.80;;;16.49;60.73;99127.88;5040766;28;20480;-74
2023/10/04 09:45:24;;;;;;;6.40;2.07;;;16.70;74.80;;;16.96;59.11;99125.41;5041713;28;20565;-74
2023/10/04 09:47:53;;;;;;;3.10;1.93;;;17.10;74.00;;;16.99;58.15;99126.88;5043140;28;20564;-73
2023/10/04 09:50:24;;;;;;;3.63;2.20;;;17.30;72.70;;;17.06;57.74;99127.59;5039933;28;20526;-73
2023/10/04 09:52:53;;;;;;;8.47;2.30;;;17.40;72.30;;;16.49;58.08;99112.31;5069324;28;20460;-74
2023/10/04 09:55:22;;;;;;;3.43;1.67;;;17.10;71.10;;;16.40;57.68;99109.06;5073466;28;20460;-72
2023/10/04 09:57:53;;;;;;;3.07;1.63;;;16.90;70.60;;;16.66;56.91;99120.75;5042343;28;20462;-74
2023/10/04 10:00:22;;;;;;;7.00;2.97;;;17.00;70.50;;;16.90;55.80;99126.31;5040565;28;20432;-74
2023/10/04 10:02:54;;;;;;;3.17;1.50;;;17.10;69.60;;;16.50;54.56;99055.91;5040824;28;20997;-73
2023/10/04 10:05:28;;;;;;;4.30;1.80;;;17.20;68.20;;;17.19;54.68;99123.84;5041063;28;20478;-74
2023/10/04 10:08:04;;;;;;;2.33;1.97;;;17.40;68.30;;;17.23;54.35;99130.53;5059750;28;20243;-73
2023/10/04 10:10:35;;;;;;;2.60;1.90;;;17.40;68.00;;;17.24;54.20;99126.75;5040032;28;20796;-74
2023/10/04 10:13:05;;;;;;;3.07;1.80;;;17.40;67.40;;;17.11;54.17;99121.47;5039462;28;20454;-73
2023/10/04 10:15:34;;;;;;;6.90;1.60;;;17.30;67.20;;;16.87;54.71;99124.03;5049301;28;21009;-72
2023/10/04 10:18:02;;;;;;;2.73;1.77;;;17.20;67.10;;;16.41;55.70;99121.63;5037644;28;20474;-73
2023/10/04 10:20:30;;;;;;;3.93;1.40;;;16.90;67.20;;;16.19;55.31;99125.88;5037804;28;20451;-73
2023/10/04 10:23:16;;;;;;;5.73;1.27;;;16.60;66.70;;;16.01;54.89;99130.25;5068056;28;20519;-73
2023/10/04 10:26:18;;;;;;;3.43;1.20;;;16.40;65.80;;;16.24;54.26;99117.84;5044668;28;20540;-72